Current Weather

Sadiq Abubakar Iii Intl

Sadiq Abubakar Iii Intl, Nigeria (DNSO)

Report from: Thursday, April 25, 2024 1:00 AM +10
Current time: Thursday, April 25, 2024 5:08 AM +10

Nearby weather – Weather history – Daily summaries
Weather forecast

Temperature44.0°C (111.2°F)
Heat index53.8°C (128.8°F)
Dew point24.0°C (75.2°F)
Winds 5 kts (2.6 m/s, 5.8 mph) North-Northwest (330°)
Visibility6.2 mi. (10 km)
Clouds Scattered clouds 1,700 ft. (518 m)
Few clouds with cumulonimbus 2,600 ft. (792 m)
Altimeter29.71 in.Hg (1006 mB)
Relative humidity33 %
Density altitude3,872 ft. (1,180 m)
Flight conditions Visual Meteorological Conditions
Raw dataDNSO 241500Z 33005KT 9999 SCT017 FEW026CB 44/24 Q1006
An error has occurred. This application may no longer respond until reloaded. Reload 🗙